Time;durP1;ratioP1;P1;durP2;ratioP2;P2;SDS_P1;SDS_P2;PMS_P1;PMS_P2;Temp;Humidity;BMP_temperature;BMP_pressure;BME280_temperature;BME280_humidity;BME280_pressure;Samples;Min_cycle;Max_cycle;Signal;HPM_P1;HPM_P2
2022/05/25 00:02:17;;;;;;;7.25;2.35;;;;;;;7.62;61.87;100016.81;1756187;81;21692;-84
2022/05/25 00:05:20;;;;;;;6.67;2.15;;;;;;;7.57;62.19;100021.02;1755774;81;21209;-84
2022/05/25 00:08:26;;;;;;;4.47;2.25;;;;;;;7.51;62.08;100020.33;1754989;81;21831;-84
2022/05/25 00:11:31;;;;;;;6.67;2.92;;;;;;;7.43;61.97;100020.65;1756192;81;21210;-84
2022/05/25 00:14:37;;;;;;;5.47;2.62;;;;;;;7.36;62.11;100023.66;1755418;81;21757;-84
2022/05/25 00:17:44;;;;;;;3.15;2.42;;;;;;;7.32;62.29;100021.42;1736745;80;21221;-84
2022/05/25 00:20:50;;;;;;;9.15;2.45;;;;;;;7.27;62.30;100026.00;1776248;80;21196;-84
2022/05/25 00:23:56;;;;;;;5.78;2.65;;;;;;;7.24;62.42;100030.90;1776576;80;21204;-83
2022/05/25 00:27:01;;;;;;;11.12;2.40;;;;;;;7.22;62.69;100031.07;1777907;80;21153;-84
2022/05/25 00:30:07;;;;;;;3.52;2.17;;;;;;;7.20;62.97;100030.39;1777296;80;21177;-84
2022/05/25 00:33:13;;;;;;;3.10;2.52;;;;;;;7.20;63.23;100037.20;1776691;80;21192;-84
2022/05/25 00:36:19;;;;;;;5.55;2.80;;;;;;;7.17;63.62;100030.70;1777334;80;21208;-84
2022/05/25 00:39:25;;;;;;;6.53;2.85;;;;;;;7.13;63.72;100034.25;1777773;80;21173;-84
2022/05/25 00:42:30;;;;;;;5.25;2.62;;;;;;;7.11;63.67;100038.16;1777781;80;21196;-84
2022/05/25 00:45:37;;;;;;;7.40;2.45;;;;;;;7.09;63.76;100037.45;1776760;80;21177;-84
2022/05/25 00:49:00;;;;;;;4.92;2.70;;;;;;;7.03;63.82;100036.23;1743531;81;21762;-84
2022/05/25 00:52:09;;;;;;;5.83;2.62;;;;;;;7.00;64.18;100037.05;1758523;81;21174;-84
2022/05/25 00:55:14;;;;;;;4.25;2.47;;;;;;;6.96;64.54;100043.30;1758455;81;21221;-84
2022/05/25 00:58:20;;;;;;;4.53;2.83;;;;;;;6.93;64.85;100040.08;1757206;81;21201;-84
2022/05/25 01:01:26;;;;;;;4.55;2.87;;;;;;;6.89;65.03;100043.10;1756601;81;21198;-84
2022/05/25 01:04:31;;;;;;;5.83;3.37;;;;;;;6.88;65.00;100042.77;1775377;80;21204;-84
2022/05/25 01:07:47;;;;;;;7.60;2.67;;;;;;;6.85;65.07;100040.86;1776476;80;21208;-77
2022/05/25 01:11:11;;;;;;;10.15;3.50;;;;;;;6.80;65.04;100039.97;1776277;80;21177;-77
2022/05/25 01:14:23;;;;;;;6.37;3.15;;;;;;;6.78;65.24;100044.73;1778148;80;21236;-83
2022/05/25 01:17:49;;;;;;;8.65;3.02;;;;;;;6.74;66.21;100039.26;1775540;80;21249;-83
2022/05/25 01:21:05;;;;;;;14.03;3.02;;;;;;;6.70;66.82;100041.09;1755926;81;21190;-83
2022/05/25 01:24:19;;;;;;;6.35;3.17;;;;;;;6.64;67.15;100051.58;1753357;81;21189;-83
2022/05/25 01:27:52;;;;;;;8.28;3.00;;;;;;;6.60;67.70;100047.98;1754563;81;21201;-83
2022/05/25 01:31:00;;;;;;;7.58;3.00;;;;;;;6.54;68.39;100049.47;1755375;81;21249;-83
2022/05/25 01:34:20;;;;;;;18.73;3.20;;;;;;;6.51;69.23;100054.35;1754746;81;21173;-84
2022/05/25 01:37:50;;;;;;;9.13;3.22;;;;;;;6.47;69.44;100052.45;1755111;81;21213;-83
2022/05/25 01:41:31;;;;;;;8.63;3.17;;;;;;;6.44;69.30;100056.82;1756423;81;21166;-83
2022/05/25 01:44:41;;;;;;;5.35;3.25;;;;;;;6.39;70.30;100058.64;1756296;81;21158;-84
2022/05/25 01:47:47;;;;;;;8.98;3.52;;;;;;;6.40;71.28;100059.02;1755680;81;21178;-83
2022/05/25 01:51:06;;;;;;;11.65;3.10;;;;;;;6.42;71.93;100065.64;1756101;81;21154;-83
2022/05/25 01:54:13;;;;;;;8.38;3.60;;;;;;;6.44;72.42;100073.12;1756460;81;21198;-84
2022/05/25 01:57:19;;;;;;;11.53;3.40;;;;;;;6.47;72.91;100074.18;1755799;81;21166;-84
2022/05/25 02:00:34;;;;;;;5.78;3.12;;;;;;;6.52;72.98;100070.48;1756573;81;21186;-84
2022/05/25 02:07:36;;;;;;;11.15;3.67;;;;;;;6.65;72.60;100076.89;1714135;83;21161;-84
2022/05/25 02:11:03;;;;;;;7.47;3.55;;;;;;;6.73;72.58;100081.05;1714253;83;21181;-84
2022/05/25 02:14:48;;;;;;;12.73;3.33;;;;;;;6.83;72.27;100087.25;1713780;83;21229;-83
2022/05/25 02:18:07;;;;;;;9.18;3.08;;;;;;;7.08;71.80;100087.42;1712591;83;21726;-84
2022/05/25 02:21:25;;;;;;;7.03;3.02;;;;;;;7.54;70.66;100092.98;1717529;83;21188;-83
2022/05/25 02:24:44;;;;;;;8.53;3.27;;;;;;;8.05;68.75;100089.80;1747175;82;21781;-84
2022/05/25 02:28:05;;;;;;;;;;;;;;;8.63;66.17;100094.89;1748680;82;22164;-84
2022/05/25 02:31:11;;;;;;;10.10;2.65;;;;;;;9.28;61.42;100089.92;1739833;82;20488;-85
2022/05/25 02:34:16;;;;;;;5.15;2.40;;;;;;;9.97;56.85;100095.14;1747039;82;21153;-84
2022/05/25 02:37:22;;;;;;;8.60;2.62;;;;;;;10.52;53.41;100093.34;1747039;82;21180;-84
2022/05/25 02:40:27;;;;;;;9.25;2.55;;;;;;;11.03;50.84;100099.11;1747016;82;21208;-84
2022/05/25 02:43:33;;;;;;;3.77;2.10;;;;;;;11.56;48.52;100102.17;1746197;82;21196;-84
2022/05/25 02:46:38;;;;;;;2.60;2.05;;;;;;;12.03;46.14;100105.09;1746531;82;21765;-84
2022/05/25 02:49:44;;;;;;;8.48;2.95;;;;;;;12.43;44.56;100105.07;1747294;82;21141;-84
2022/05/25 02:52:52;;;;;;;5.22;2.85;;;;;;;12.81;43.55;100105.37;1746233;82;21735;-84
2022/05/25 02:55:57;;;;;;;7.08;2.50;;;;;;;13.19;42.69;100114.17;1747098;82;21845;-84
2022/05/25 02:59:02;;;;;;;5.70;2.58;;;;;;;13.59;41.48;100114.50;1747159;82;21774;-84
2022/05/25 03:02:07;;;;;;;6.85;2.30;;;;;;;13.90;40.75;100116.30;1747235;82;21782;-82
2022/05/25 03:05:16;;;;;;;4.40;2.25;;;;;;;14.12;40.26;100115.69;1747332;82;21511;-83
2022/05/25 03:08:21;;;;;;;9.83;2.35;;;;;;;14.22;40.22;100116.68;1795087;80;21173;-84
2022/05/25 03:11:26;;;;;;;5.85;2.45;;;;;;;14.22;40.04;100118.05;1796293;80;21178;-83
2022/05/25 03:14:26;;;;;;;2.90;2.40;;;;;;;14.25;40.22;100119.00;1796466;80;21146;-83
2022/05/25 03:17:20;;;;;;;4.95;2.10;;;;;;;14.35;40.81;100128.25;1795942;80;21177;-84
2022/05/25 03:20:07;;;;;;;5.60;1.90;;;;;;;14.56;41.10;100124.87;1796706;80;21154;-83
2022/05/25 03:23:01;;;;;;;2.65;1.60;;;;;;;14.80;41.15;100128.13;1795921;80;21692;-84
2022/05/25 03:25:47;;;;;;;6.33;1.95;;;;;;;14.98;41.17;100129.75;1796064;80;21773;-83
2022/05/25 03:28:53;;;;;;;2.80;1.65;;;;;;;15.19;41.60;100132.83;1796073;80;21739;-84
2022/05/25 03:31:59;;;;;;;4.87;2.02;;;;;;;15.43;40.94;100134.64;1796310;80;21149;-84
2022/05/25 03:35:05;;;;;;;5.55;1.90;;;;;;;15.65;40.18;100122.91;1796065;80;21162;-84
2022/05/25 03:38:11;;;;;;;7.08;2.35;;;;;;;15.83;39.51;100131.36;1794881;80;21746;-84
2022/05/25 03:41:10;;;;;;;8.58;2.52;;;;;;;15.97;39.14;100127.52;1796070;80;21464;-84
2022/05/25 03:44:15;;;;;;;5.15;2.27;;;;;;;16.15;38.54;100134.27;1795989;80;21114;-84
2022/05/25 03:47:20;;;;;;;9.10;2.25;;;;;;;16.30;38.08;100145.34;1795668;80;21205;-84
2022/05/25 03:50:25;;;;;;;11.18;2.67;;;;;;;16.41;37.60;100146.57;1796367;80;21157;-83
2022/05/25 03:53:30;;;;;;;8.50;2.45;;;;;;;16.44;37.18;100142.55;1796059;80;21185;-83
2022/05/25 03:56:36;;;;;;;5.95;2.42;;;;;;;16.50;36.70;100136.98;1796437;80;21492;-84
2022/05/25 03:59:43;;;;;;;7.42;2.22;;;;;;;16.56;37.36;100143.03;1794984;80;21551;-83
2022/05/25 04:02:49;;;;;;;4.40;2.50;;;;;;;16.60;37.16;100141.49;1792376;80;21180;-84
2022/05/25 04:05:54;;;;;;;5.90;2.27;;;;;;;16.60;37.07;100151.70;1745499;82;21228;-84
2022/05/25 04:09:00;;;;;;;4.40;2.12;;;;;;;16.61;37.18;100157.55;1763711;80;21196;-84
2022/05/25 04:12:08;;;;;;;8.25;2.77;;;;;;;16.59;37.28;100150.00;1765882;81;21175;-84
2022/05/25 04:15:14;;;;;;;11.78;3.52;;;;;;;16.63;37.69;100152.64;1765779;81;21205;-83
2022/05/25 04:18:20;;;;;;;8.03;3.42;;;;;;;16.73;37.95;100162.71;1750434;82;21192;-84
2022/05/25 04:21:27;;;;;;;10.75;4.55;;;;;;;16.81;38.01;100152.80;1766386;81;21746;-78
2022/05/25 04:24:32;;;;;;;11.12;5.35;;;;;;;16.91;38.16;100158.38;1765939;81;21737;-78
2022/05/25 04:27:40;;;;;;;16.25;5.72;;;;;;;17.02;38.08;100163.19;1750661;82;21620;-78
2022/05/25 04:30:45;;;;;;;10.82;5.12;;;;;;;17.19;38.17;100161.60;1765871;81;21224;-78
2022/05/25 04:33:49;;;;;;;13.95;5.17;;;;;;;17.36;37.98;100166.91;1763763;80;21209;-78
2022/05/25 04:37:48;;;;;;;17.87;7.05;;;;;;;17.50;37.97;100162.13;1761902;81;21665;-77
2022/05/25 04:40:04;;;;;;;16.02;5.80;;;;;;;17.62;37.69;100163.60;1760996;81;21209;-78
2022/05/25 04:43:14;;;;;;;9.48;4.25;;;;;;;17.78;38.25;100167.73;1761979;81;22192;-78
2022/05/25 04:46:20;;;;;;;19.00;7.53;;;;;;;17.94;38.13;100163.02;1761992;81;21743;-78
2022/05/25 04:49:26;;;;;;;19.77;8.70;;;;;;;18.10;37.95;100156.88;1783297;79;21715;-77
2022/05/25 04:52:32;;;;;;;21.15;9.75;;;;;;;18.28;37.90;100159.36;1782893;80;21201;-78
2022/05/25 04:59:01;;;;;;;27.17;10.05;;;;;;;18.62;38.00;100153.17;1800116;79;21189;-78
2022/05/25 05:02:08;;;;;;;13.60;5.97;;;;;;;18.80;37.79;100161.19;1801789;79;21165;-78
2022/05/25 05:05:17;;;;;;;14.38;5.45;;;;;;;18.97;37.10;100168.33;1715368;83;21181;-78
2022/05/25 05:08:22;;;;;;;13.00;4.45;;;;;;;19.05;36.86;100163.27;1734548;82;21240;-78
2022/05/25 05:11:29;;;;;;;12.58;3.77;;;;;;;19.11;37.20;100165.13;1682419;85;21846;-78
2022/05/25 05:14:35;;;;;;;10.93;4.40;;;;;;;19.22;37.72;100169.55;1683462;85;21193;-78
2022/05/25 05:17:40;;;;;;;11.10;3.50;;;;;;;19.29;37.08;100166.13;1684407;83;21274;-78
2022/05/25 05:20:51;;;;;;;8.73;3.25;;;;;;;19.34;37.46;100164.90;1706938;83;21259;-78
2022/05/25 05:23:57;;;;;;;9.03;2.58;;;;;;;19.33;37.40;100168.19;1706928;84;21186;-78
2022/05/25 05:27:02;;;;;;;16.55;2.65;;;;;;;19.32;37.98;100167.05;1721843;82;21169;-84
2022/05/25 05:30:11;;;;;;;8.23;2.33;;;;;;;19.39;36.62;100170.03;1718925;82;21209;-83
2022/05/25 05:33:18;;;;;;;3.87;1.80;;;;;;;19.45;35.52;100169.61;1725983;82;21206;-84
2022/05/25 05:36:28;;;;;;;8.38;2.22;;;;;;;19.53;35.84;100167.89;1784001;79;21177;-83
2022/05/25 05:39:30;;;;;;;7.75;1.87;;;;;;;19.65;36.03;100170.16;1795930;80;21248;-82
2022/05/25 05:42:41;;;;;;;4.03;2.30;;;;;;;19.78;35.68;100167.70;1779779;79;21190;-81
2022/05/25 05:45:47;;;;;;;4.85;1.80;;;;;;;19.89;35.99;100175.17;1794451;80;21291;-81
2022/05/25 05:48:53;;;;;;;4.00;1.85;;;;;;;20.03;36.12;100181.88;1781505;78;21141;-81
2022/05/25 05:51:59;;;;;;;7.20;1.85;;;;;;;20.18;35.84;100187.78;1786802;80;21227;-82
2022/05/25 05:55:05;;;;;;;4.53;1.90;;;;;;;20.30;36.53;100194.73;1795157;80;21333;-82
2022/05/25 05:58:10;;;;;;;4.70;1.75;;;;;;;20.39;34.42;100197.45;1795722;80;21222;-82
2022/05/25 06:01:15;;;;;;;6.08;1.60;;;;;;;20.38;35.44;100191.05;1796055;80;21796;-81
2022/05/25 06:04:22;;;;;;;3.00;1.60;;;;;;;20.45;35.29;100199.78;1796175;80;21200;-81
2022/05/25 06:07:29;;;;;;;10.68;2.10;;;;;;;20.50;34.77;100197.98;1796261;80;21783;-82
2022/05/25 06:10:35;;;;;;;4.42;2.55;;;;;;;20.52;34.15;100198.61;1789407;80;21822;-82
2022/05/25 06:13:34;;;;;;;4.83;1.98;;;;;;;20.58;34.12;100201.78;1789472;80;21209;-83
2022/05/25 06:19:41;;;;;;;2.77;1.75;;;;;;;20.59;34.29;100203.47;1767728;80;21212;-83
2022/05/25 06:22:50;;;;;;;4.00;1.65;;;;;;;20.61;33.51;100197.69;1790967;80;21201;-82
2022/05/25 06:25:56;;;;;;;5.20;1.90;;;;;;;20.66;33.94;100211.14;1791519;80;21790;-82
2022/05/25 06:29:02;;;;;;;9.33;1.70;;;;;;;20.71;33.85;100206.23;1791182;80;21190;-83
2022/05/25 06:32:07;;;;;;;4.45;1.60;;;;;;;20.77;33.29;100214.14;1791326;80;21996;-82
2022/05/25 06:35:07;;;;;;;2.40;1.55;;;;;;;20.79;32.88;100220.28;1789573;80;21225;-82
2022/05/25 06:38:13;;;;;;;7.80;2.02;;;;;;;20.86;33.76;100212.66;1790692;80;21138;-82
2022/05/25 06:41:19;;;;;;;4.00;1.37;;;;;;;20.98;32.77;100227.34;1791423;80;21177;-83
2022/05/25 06:44:27;;;;;;;7.58;1.70;;;;;;;21.05;33.02;100223.05;1791328;80;21208;-83
2022/05/25 06:47:32;;;;;;;4.62;1.80;;;;;;;21.07;32.49;100224.48;1788932;78;21634;-83
2022/05/25 06:50:37;;;;;;;3.72;2.27;;;;;;;21.09;32.23;100223.70;1778789;80;21212;-83
2022/05/25 06:53:42;;;;;;;16.02;1.87;;;;;;;21.13;31.72;100220.73;1781083;78;21189;-84
2022/05/25 06:56:46;;;;;;;3.77;1.85;;;;;;;21.16;31.99;100230.50;1782424;78;21193;-77
2022/05/25 06:59:55;;;;;;;4.40;1.42;;;;;;;21.13;32.13;100229.63;1781505;80;21536;-77
2022/05/25 07:03:01;;;;;;;5.60;1.72;;;;;;;21.17;31.56;100231.66;1783998;78;21224;-78
2022/05/25 07:06:24;;;;;;;6.00;1.22;;;;;;;21.28;32.06;100234.08;1795233;78;21452;-83
2022/05/25 07:09:51;;;;;;;3.35;1.40;;;;;;;21.39;32.09;100247.12;1780217;80;21723;-77
2022/05/25 07:12:58;;;;;;;3.83;1.60;;;;;;;21.48;30.51;100247.56;1757831;80;21181;-78
2022/05/25 07:16:07;;;;;;;1.92;1.27;;;;;;;21.53;30.44;100236.53;1746424;82;21196;-84
2022/05/25 07:19:14;;;;;;;12.70;1.45;;;;;;;21.52;30.14;100239.02;1741898;81;21164;-85
2022/05/25 07:22:19;;;;;;;4.12;1.30;;;;;;;21.51;30.08;100242.90;1765313;80;21169;-82
2022/05/25 07:25:26;;;;;;;2.47;1.50;;;;;;;21.52;30.31;100245.13;1712499;82;21197;-78
2022/05/25 07:28:33;;;;;;;4.53;1.50;;;;;;;21.52;29.64;100244.58;1771962;80;21244;-77
2022/05/25 07:31:47;;;;;;;3.50;1.37;;;;;;;21.49;28.95;100250.64;1774431;80;21871;-77
2022/05/25 07:34:57;;;;;;;3.37;1.47;;;;;;;21.49;29.44;100247.86;1776638;80;21749;-83
2022/05/25 07:38:04;;;;;;;3.20;1.52;;;;;;;21.53;29.28;100250.98;1747032;81;21204;-83
2022/05/25 07:41:10;;;;;;;7.08;1.87;;;;;;;21.57;29.15;100246.62;1756549;81;21852;-83
2022/05/25 07:44:20;;;;;;;3.83;1.50;;;;;;;21.62;29.36;100246.16;1776118;80;21153;-83
2022/05/25 07:47:26;;;;;;;4.72;1.22;;;;;;;21.67;28.91;100249.03;1732527;82;21555;-83
2022/05/25 07:50:33;;;;;;;3.83;1.40;;;;;;;21.80;29.24;100247.03;1754020;81;21184;-83
2022/05/25 07:53:57;;;;;;;2.95;1.45;;;;;;;22.04;29.56;100254.13;1753651;81;21176;-77
2022/05/25 07:57:03;;;;;;;5.00;1.65;;;;;;;22.20;27.60;100253.29;1749010;80;21160;-77
2022/05/25 08:00:11;;;;;;;7.25;1.90;;;;;;;22.23;28.25;100258.08;1753099;80;21244;-77
2022/05/25 08:06:42;;;;;;;3.15;1.10;;;;;;;22.34;28.69;100256.57;1770670;80;21133;-77
2022/05/25 08:09:51;;;;;;;6.53;1.42;;;;;;;22.43;28.30;100256.44;1758884;80;21141;-77
2022/05/25 08:13:02;;;;;;;3.80;1.30;;;;;;;22.50;27.84;100261.00;1770621;79;21168;-77
2022/05/25 08:16:08;;;;;;;2.75;1.40;;;;;;;22.62;27.87;100268.69;1769035;80;21177;-77
2022/05/25 08:19:06;;;;;;;3.30;1.50;;;;;;;22.69;27.18;100274.39;1741931;80;21167;-77
2022/05/25 08:22:03;;;;;;;3.92;1.12;;;;;;;22.64;27.53;100260.38;1770335;80;21208;-83
2022/05/25 08:25:09;;;;;;;3.40;1.32;;;;;;;22.61;27.52;100267.85;1774822;80;21176;-83
2022/05/25 08:28:15;;;;;;;7.37;1.57;;;;;;;22.59;27.61;100268.67;1771175;78;21485;-84
2022/05/25 08:31:21;;;;;;;5.40;1.50;;;;;;;22.66;28.11;100260.11;1785127;79;21119;-84
2022/05/25 08:34:27;;;;;;;2.98;1.12;;;;;;;22.75;26.91;100266.09;1791667;79;21735;-83
2022/05/25 08:37:36;;;;;;;3.72;1.00;;;;;;;22.83;26.50;100258.69;1773113;79;21195;-83
2022/05/25 08:40:42;;;;;;;3.65;1.25;;;;;;;22.87;26.73;100262.64;1762981;80;21164;-83
2022/05/25 08:43:55;;;;;;;1.75;1.35;;;;;;;22.67;27.01;100286.33;1748062;82;21172;-83
2022/05/25 08:47:02;;;;;;;5.28;1.55;;;;;;;22.44;26.82;100274.00;1752146;82;21184;-82
2022/05/25 08:50:09;;;;;;;9.23;2.37;;;;;;;22.27;27.65;100280.16;1784268;79;21149;-82
2022/05/25 08:53:17;;;;;;;3.60;1.27;;;;;;;22.10;28.17;100282.34;1788622;78;21145;-77
2022/05/25 08:56:54;;;;;;;2.42;1.25;;;;;;;21.98;28.02;100282.99;1784422;78;21209;-77
2022/05/25 09:00:17;;;;;;;2.12;1.35;;;;;;;21.91;28.55;100282.30;1790521;79;21203;-77
2022/05/25 09:03:33;;;;;;;2.30;1.30;;;;;;;22.02;28.67;100279.13;1775123;79;21154;-83
2022/05/25 09:07:04;;;;;;;5.58;1.60;;;;;;;22.26;28.77;100274.30;1770276;79;22017;-83
2022/05/25 09:10:11;;;;;;;4.83;1.30;;;;;;;22.42;28.44;100277.59;1780009;79;21157;-77
2022/05/25 09:13:29;;;;;;;2.67;1.32;;;;;;;22.58;28.05;100273.09;1776047;79;21197;-77
2022/05/25 09:16:37;;;;;;;2.00;1.10;;;;;;;22.80;27.98;100273.13;1780829;80;21134;-77
2022/05/25 09:19:46;;;;;;;1.92;1.07;;;;;;;23.08;28.06;100274.92;1732401;80;21141;-77
2022/05/25 09:22:52;;;;;;;3.85;1.20;;;;;;;23.10;27.42;100276.38;1772290;80;21234;-83
2022/05/25 09:25:58;;;;;;;3.17;1.20;;;;;;;22.87;27.27;100282.17;1784723;79;21138;-83
2022/05/25 09:29:06;;;;;;;2.67;1.65;;;;;;;22.66;28.03;100288.83;1779520;80;21213;-83
2022/05/25 09:32:55;;;;;;;1.52;1.10;;;;;;;22.55;28.17;100281.98;1745275;81;21924;-83
2022/05/25 09:36:09;;;;;;;5.10;1.40;;;;;;;22.53;28.40;100287.80;1764718;80;21197;-84
2022/05/25 09:39:40;;;;;;;2.83;1.20;;;;;;;22.50;28.36;100293.90;1766244;79;21722;-84
2022/05/25 09:42:45;;;;;;;2.90;1.30;;;;;;;22.45;27.83;100291.87;1738498;81;21706;-83
2022/05/25 09:45:57;;;;;;;3.00;1.20;;;;;;;22.52;27.78;100289.45;1765680;79;21181;-84
2022/05/25 09:49:05;;;;;;;4.10;1.50;;;;;;;22.78;27.57;100288.73;1770815;79;21196;-83
2022/05/25 09:52:15;;;;;;;3.70;1.50;;;;;;;23.03;27.62;100284.08;1741396;81;21810;-83
2022/05/25 09:55:54;;;;;;;4.12;1.27;;;;;;;23.27;26.84;100281.02;1774134;79;21169;-77
2022/05/25 09:59:04;;;;;;;7.22;1.80;;;;;;;23.48;28.00;100281.56;1771170;79;21212;-84
2022/05/25 10:02:32;;;;;;;5.30;1.52;;;;;;;23.46;26.62;100282.36;1772388;79;21197;-83
2022/05/25 10:05:44;;;;;;;5.50;1.60;;;;;;;23.29;27.15;100282.98;1767230;79;21131;-78
2022/05/25 10:08:50;;;;;;;1.15;0.95;;;;;;;23.10;26.80;100286.66;1729615;81;21563;-77
2022/05/25 10:12:00;;;;;;;2.77;1.17;;;;;;;22.98;27.44;100276.20;1745659;80;21478;-77
2022/05/25 10:15:14;;;;;;;5.47;1.37;;;;;;;22.93;27.77;100290.92;1764258;81;21184;-77
2022/05/25 10:18:22;;;;;;;7.33;1.40;;;;;;;22.99;26.40;100275.92;1794723;79;21845;-77
2022/05/25 10:21:39;;;;;;;6.72;1.20;;;;;;;23.06;25.68;100273.80;1789833;79;21734;-77
2022/05/25 10:24:49;;;;;;;4.60;1.60;;;;;;;23.17;25.64;100270.02;1806538;79;21144;-77
2022/05/25 10:27:53;;;;;;;;;;;;;;;23.35;25.41;100265.22;1784187;78;21136;-77
2022/05/25 10:37:55;;;;;;;5.53;1.40;;;;;;;23.49;25.75;100278.21;1739736;80;21204;-77
2022/05/25 10:41:37;;;;;;;4.37;1.35;;;;;;;23.34;27.13;100274.14;1710174;81;21215;-78
2022/05/25 10:44:25;;;;;;;5.12;1.80;;;;;;;23.25;26.91;100274.87;1779683;79;21212;-83
2022/05/25 10:48:23;;;;;;;3.10;1.40;;;;;;;23.15;26.86;100270.85;1743872;80;21185;-84
2022/05/25 10:51:42;;;;;;;2.72;1.40;;;;;;;23.07;26.35;100275.48;1739715;80;21829;-79
2022/05/25 10:54:50;;;;;;;4.67;1.30;;;;;;;23.07;27.05;100269.91;1794457;79;21192;-84
2022/05/25 10:58:19;;;;;;;3.60;1.17;;;;;;;23.14;27.07;100269.14;1753716;79;21164;-78
2022/05/25 11:01:34;;;;;;;5.40;1.50;;;;;;;23.24;26.47;100270.37;1770663;79;21125;-78
2022/05/25 11:04:52;;;;;;;4.35;1.20;;;;;;;23.43;26.45;100275.37;1754437;81;21216;-84
2022/05/25 11:08:02;;;;;;;6.43;1.70;;;;;;;23.54;25.57;100265.14;1775211;79;21541;-84
2022/05/25 11:11:17;;;;;;;5.27;1.60;;;;;;;23.51;25.29;100259.23;1765500;79;21183;-82
2022/05/25 11:14:44;;;;;;;4.00;1.10;;;;;;;23.40;25.18;100261.08;1791290;79;21227;-84
2022/05/25 11:18:06;;;;;;;4.78;1.20;;;;;;;23.41;25.01;100251.60;1784375;79;21186;-83
2022/05/25 11:21:29;;;;;;;2.50;1.20;;;;;;;23.58;25.65;100250.12;1686316;79;21177;-84
2022/05/25 11:24:48;;;;;;;7.40;1.30;;;;;;;23.80;26.60;100253.69;1761230;79;21193;-78
2022/05/25 11:28:23;;;;;;;2.10;1.20;;;;;;;23.88;25.42;100256.02;1752076;81;21730;-77
2022/05/25 11:31:47;;;;;;;3.98;1.32;;;;;;;23.82;25.84;100251.50;1741141;80;21165;-77
2022/05/25 11:35:21;;;;;;;7.17;1.35;;;;;;;23.73;26.18;100257.83;1738593;81;21232;-77
2022/05/25 11:38:55;;;;;;;1.40;1.10;;;;;;;23.57;26.12;100260.44;1751525;80;21195;-77
2022/05/25 11:42:46;;;;;;;6.70;1.65;;;;;;;23.51;26.53;100260.63;1780260;80;21163;-77
2022/05/25 11:46:08;;;;;;;1.98;1.05;;;;;;;23.56;26.71;100254.55;1748434;80;21770;-77
2022/05/25 11:49:50;;;;;;;1.75;1.20;;;;;;;23.60;26.09;100252.08;1772639;79;21166;-77
2022/05/25 11:53:22;;;;;;;7.65;1.35;;;;;;;23.57;26.12;100255.38;1776757;80;21221;-77
2022/05/25 11:56:57;;;;;;;4.05;1.00;;;;;;;23.48;26.79;100260.63;1783534;80;21751;-77
2022/05/25 12:00:33;;;;;;;1.70;1.10;;;;;;;23.37;25.85;100264.39;1783436;80;21177;-78
2022/05/25 12:04:04;;;;;;;5.37;1.22;;;;;;;23.30;26.13;100266.56;1781751;79;21232;-77
2022/05/25 12:07:22;;;;;;;4.62;1.20;;;;;;;23.23;26.16;100259.77;1778812;80;21224;-78
2022/05/25 12:10:38;;;;;;;1.55;1.10;;;;;;;23.25;26.92;100263.16;1730779;82;21193;-78
2022/05/25 12:13:58;;;;;;;6.30;1.30;;;;;;;23.33;26.55;100254.30;1743108;81;21166;-78
2022/05/25 12:17:07;;;;;;;5.33;1.60;;;;;;;23.48;25.99;100255.04;1777798;80;21204;-78
2022/05/25 12:20:16;;;;;;;2.52;1.05;;;;;;;23.66;25.63;100249.09;1796991;80;21261;-78
2022/05/25 12:23:24;;;;;;;8.38;1.17;;;;;;;23.88;25.83;100252.38;1778891;80;21179;-78
2022/05/25 12:26:33;;;;;;;1.35;1.00;;;;;;;24.01;24.83;100256.13;1751664;82;21176;-78
2022/05/25 12:29:50;;;;;;;2.35;1.52;;;;;;;24.05;25.78;100244.72;1748605;81;21801;-78
2022/05/25 12:32:51;;;;;;;1.82;1.27;;;;;;;24.14;25.47;100240.87;1777630;80;21702;-78
2022/05/25 12:35:57;;;;;;;5.05;1.72;;;;;;;24.11;25.31;100246.98;1767297;80;21295;-78
2022/05/25 12:39:03;;;;;;;2.10;1.30;;;;;;;24.01;25.21;100256.13;1768428;79;21172;-77
2022/05/25 12:42:31;;;;;;;3.45;1.50;;;;;;;23.93;25.30;100260.80;1763233;79;21294;-78
2022/05/25 12:49:13;;;;;;;4.33;1.37;;;;;;;23.71;25.74;100253.36;1766612;80;21589;-78
2022/05/25 12:52:46;;;;;;;4.50;1.22;;;;;;;23.57;25.72;100250.67;1784961;79;21169;-78
2022/05/25 12:56:27;;;;;;;6.20;1.25;;;;;;;23.55;25.65;100251.47;1747272;81;21200;-77
2022/05/25 12:59:45;;;;;;;4.12;1.20;;;;;;;23.54;26.01;100248.39;1780477;80;21125;-78
2022/05/25 13:02:58;;;;;;;3.62;1.60;;;;;;;23.51;25.53;100247.52;1785251;78;21517;-85
2022/05/25 13:06:05;;;;;;;2.70;1.30;;;;;;;23.41;25.40;100243.23;1734591;82;21158;-84
2022/05/25 13:09:16;;;;;;;4.70;1.10;;;;;;;23.37;25.27;100249.04;1734360;82;21734;-84
2022/05/25 13:12:46;;;;;;;5.67;1.50;;;;;;;23.37;25.53;100248.48;1718816;82;21162;-84
2022/05/25 13:15:53;;;;;;;6.67;1.47;;;;;;;23.31;24.78;100254.28;1779461;79;21172;-78
2022/05/25 13:19:02;;;;;;;2.72;1.22;;;;;;;23.26;25.99;100249.48;1761210;79;21153;-80
2022/05/25 13:22:14;;;;;;;2.47;1.10;;;;;;;23.27;26.08;100248.93;1774177;80;21786;-76
2022/05/25 13:25:37;;;;;;;2.30;1.30;;;;;;;23.25;26.06;100251.16;1756506;81;21270;-76
2022/05/25 13:29:14;;;;;;;7.20;1.30;;;;;;;23.19;26.37;100247.44;1729565;83;21203;-76
2022/05/25 13:32:45;;;;;;;2.05;1.17;;;;;;;23.28;26.99;100250.61;1755007;80;21196;-76
2022/05/25 13:36:16;;;;;;;2.75;0.95;;;;;;;23.38;25.99;100252.98;1731883;81;21157;-77
2022/05/25 13:39:23;;;;;;;;;;;;;;;23.38;25.85;100246.53;1778194;81;21679;-76
2022/05/25 13:42:29;;;;;;;3.17;1.30;;;;;;;23.43;26.07;100240.48;1729877;82;20201;-76
2022/05/25 13:45:35;;;;;;;2.95;1.10;;;;;;;23.45;26.58;100237.41;1750435;82;21251;-78
2022/05/25 13:48:42;;;;;;;6.75;1.40;;;;;;;23.46;26.00;100237.70;1779758;80;21197;-77
2022/05/25 13:51:47;;;;;;;8.23;1.50;;;;;;;23.44;25.80;100238.53;1785823;80;21732;-77
2022/05/25 13:55:03;;;;;;;2.10;1.20;;;;;;;23.41;25.44;100225.92;1786916;79;21702;-83
2022/05/25 13:58:09;;;;;;;5.20;1.20;;;;;;;23.43;25.20;100229.31;1780486;79;21185;-78
2022/05/25 14:01:15;;;;;;;4.17;1.00;;;;;;;23.39;25.66;100228.70;1771021;81;21203;-83
2022/05/25 14:04:32;;;;;;;1.60;1.00;;;;;;;23.33;25.75;100225.55;1770188;81;21172;-83
2022/05/25 14:07:46;;;;;;;3.52;1.20;;;;;;;23.21;25.97;100230.73;1769461;79;21232;-77
2022/05/25 14:11:08;;;;;;;5.62;1.20;;;;;;;23.12;25.84;100236.48;1770970;81;21169;-77
2022/05/25 14:14:34;;;;;;;4.87;1.40;;;;;;;23.02;25.02;100228.00;1771050;81;21169;-77
2022/05/25 14:17:40;;;;;;;4.10;1.47;;;;;;;22.92;25.17;100227.88;1768917;80;21196;-77
2022/05/25 14:20:46;;;;;;;3.52;1.15;;;;;;;22.77;25.68;100231.81;1760185;81;21173;-77
2022/05/25 14:23:52;;;;;;;7.40;1.22;;;;;;;22.57;26.32;100242.98;1758989;80;21209;-77
2022/05/25 14:27:22;;;;;;;2.08;1.00;;;;;;;22.43;26.69;100237.48;1759821;80;21240;-77
2022/05/25 14:30:38;;;;;;;2.55;1.70;;;;;;;22.34;26.77;100236.23;1760391;81;21334;-78
2022/05/25 14:33:43;;;;;;;4.15;1.57;;;;;;;22.35;26.98;100240.73;1760393;80;21205;-77
2022/05/25 14:36:52;;;;;;;9.25;1.47;;;;;;;22.37;26.40;100232.39;1760403;80;21267;-78
2022/05/25 14:39:59;;;;;;;3.03;1.30;;;;;;;22.41;26.67;100233.56;1760675;81;21133;-77
2022/05/25 14:43:10;;;;;;;1.90;1.10;;;;;;;22.47;26.66;100226.12;1760359;80;21185;-77
2022/05/25 14:46:26;;;;;;;2.15;1.27;;;;;;;22.49;26.48;100228.64;1760375;81;21149;-78
2022/05/25 14:49:31;;;;;;;5.30;1.42;;;;;;;22.55;27.09;100231.27;1786951;80;21184;-77
2022/05/25 14:52:35;;;;;;;3.35;1.70;;;;;;;22.59;26.46;100225.47;1770046;79;21248;-77
2022/05/25 14:56:01;;;;;;;8.70;1.60;;;;;;;22.61;26.20;100223.80;1787265;80;21142;-77
2022/05/25 14:59:04;;;;;;;5.55;1.15;;;;;;;22.62;26.59;100219.36;1754982;81;21756;-77
2022/05/25 15:02:08;;;;;;;4.90;1.45;;;;;;;22.64;26.71;100212.98;1799907;79;21267;-77
2022/05/25 15:05:47;;;;;;;3.17;1.25;;;;;;;22.64;26.84;100211.59;1799644;79;21145;-77
2022/05/25 15:09:01;;;;;;;3.80;1.40;;;;;;;22.67;26.71;100205.48;1799615;79;21196;-77
2022/05/25 15:12:21;;;;;;;6.08;1.42;;;;;;;22.68;26.29;100207.75;1753685;81;21745;-77
2022/05/25 15:18:58;;;;;;;3.33;1.15;;;;;;;22.56;26.32;100210.64;1797131;79;21162;-78
2022/05/25 15:22:07;;;;;;;2.12;1.32;;;;;;;22.49;26.37;100210.52;1791728;80;21134;-78